createdAt,value
2023-01-06T00:01:19.852Z,98727.13
2023-01-06T00:03:54.635Z,98732.78
2023-01-06T00:06:27.879Z,98733.16
2023-01-06T00:08:56.238Z,98739.00
2023-01-06T00:11:24.055Z,98757.47
2023-01-06T00:13:51.044Z,98744.44
2023-01-06T00:16:20.599Z,98747.47
2023-01-06T00:18:48.083Z,98758.47
2023-01-06T00:21:15.833Z,98761.84
2023-01-06T00:23:43.146Z,98763.53
2023-01-06T00:26:11.091Z,98758.19
2023-01-06T00:28:39.937Z,98775.00
2023-01-06T00:31:12.082Z,98782.25
2023-01-06T00:33:39.179Z,98778.94
2023-01-06T00:36:08.854Z,98785.97
2023-01-06T00:38:39.467Z,98784.38
2023-01-06T00:41:30.412Z,98802.03
2023-01-06T00:43:58.842Z,98795.63
2023-01-06T00:46:29.312Z,98805.59
2023-01-06T00:49:06.053Z,98804.13
2023-01-06T00:51:38.575Z,98782.56
2023-01-06T00:54:08.006Z,98810.53
2023-01-06T00:56:39.364Z,98816.81
2023-01-06T00:59:07.500Z,98832.94
2023-01-06T01:01:35.799Z,98828.22
2023-01-06T01:04:05.641Z,98836.69
2023-01-06T01:06:32.930Z,98830.44
2023-01-06T01:09:00.895Z,98838.72
2023-01-06T01:11:47.137Z,98848.91
2023-01-06T01:14:16.320Z,98847.53
2023-01-06T01:16:43.249Z,98849.34
2023-01-06T01:19:11.597Z,98834.91
2023-01-06T01:21:38.890Z,98819.59
2023-01-06T01:24:06.557Z,98847.81
2023-01-06T01:26:33.611Z,98846.91
2023-01-06T01:29:01.254Z,98855.66
2023-01-06T01:31:28.224Z,98851.00
2023-01-06T01:33:55.112Z,98861.53
2023-01-06T01:36:22.175Z,98861.75
2023-01-06T01:38:49.214Z,98865.84
2023-01-06T01:41:18.568Z,98856.72
2023-01-06T01:43:47.449Z,98862.06
2023-01-06T01:46:21.662Z,98863.63
2023-01-06T01:48:49.475Z,98861.50
2023-01-06T01:51:20.952Z,98866.16
2023-01-06T01:53:53.609Z,98872.19
2023-01-06T01:56:25.811Z,98870.25
2023-01-06T01:58:59.842Z,98870.56
2023-01-06T02:01:27.320Z,98873.06
2023-01-06T02:03:54.728Z,98880.53
2023-01-06T02:06:24.957Z,98877.88
2023-01-06T02:09:17.613Z,98894.31
2023-01-06T02:12:00.950Z,98890.34
2023-01-06T02:14:50.359Z,98900.06
2023-01-06T02:17:56.536Z,98895.59
2023-01-06T02:20:58.921Z,98900.09
2023-01-06T02:23:48.353Z,98901.78
2023-01-06T02:26:48.829Z,98894.59
2023-01-06T02:29:15.704Z,98898.97
2023-01-06T02:32:03.666Z,98906.72
2023-01-06T02:34:55.955Z,98909.09
2023-01-06T02:37:36.612Z,98900.72
2023-01-06T02:40:29.388Z,98910.00
2023-01-06T02:43:22.297Z,98901.25
2023-01-06T02:46:23.197Z,98914.44
2023-01-06T02:49:07.762Z,98911.41
2023-01-06T02:51:55.478Z,98914.34
2023-01-06T02:54:52.501Z,98909.47
2023-01-06T02:57:34.609Z,98924.75
2023-01-06T03:00:24.275Z,98922.66
2023-01-06T03:02:58.464Z,98926.44
2023-01-06T03:05:26.498Z,98922.97
2023-01-06T03:07:55.570Z,98938.56
2023-01-06T03:10:25.702Z,98930.56
2023-01-06T03:13:09.444Z,98929.56
2023-01-06T03:15:36.757Z,98928.00
2023-01-06T03:18:04.812Z,98929.56
2023-01-06T03:20:31.837Z,98925.63
2023-01-06T03:22:58.814Z,98923.09
2023-01-06T03:25:25.906Z,98913.38
2023-01-06T03:27:52.820Z,98920.03
2023-01-06T03:30:20.032Z,98924.94
2023-01-06T03:33:01.640Z,98924.66
2023-01-06T03:35:52.453Z,98923.53
2023-01-06T03:38:36.392Z,98927.47
2023-01-06T03:41:49.319Z,98927.19
2023-01-06T03:44:37.581Z,98932.94
2023-01-06T03:47:16.839Z,98923.41
2023-01-06T03:49:57.463Z,98927.03
2023-01-06T03:52:31.115Z,98934.50
2023-01-06T03:55:05.643Z,98933.38
2023-01-06T03:57:39.264Z,98920.28
2023-01-06T04:00:11.375Z,98938.97
2023-01-06T04:02:41.075Z,98930.81
2023-01-06T04:05:20.412Z,98941.38
2023-01-06T04:07:48.336Z,98927.47
2023-01-06T04:10:18.348Z,98929.28
2023-01-06T04:12:45.879Z,98939.97
2023-01-06T04:15:17.131Z,98934.63
2023-01-06T04:17:45.082Z,98935.31
2023-01-06T04:20:15.966Z,98940.13
2023-01-06T04:22:42.992Z,98937.56
2023-01-06T04:25:10.468Z,98936.03
2023-01-06T04:27:37.612Z,98934.78
2023-01-06T04:30:06.071Z,98904.22
2023-01-06T04:32:33.317Z,98936.91
2023-01-06T04:35:00.260Z,98936.34
2023-01-06T04:37:27.240Z,98944.06
2023-01-06T04:39:54.133Z,98946.16
2023-01-06T04:42:21.086Z,98951.94
2023-01-06T04:44:48.940Z,98959.09
2023-01-06T04:47:15.885Z,98956.13
2023-01-06T04:49:42.814Z,98958.09
2023-01-06T04:52:09.737Z,98958.06
2023-01-06T04:54:38.873Z,98952.44
2023-01-06T04:57:05.797Z,98969.56
2023-01-06T04:59:32.757Z,98963.13
2023-01-06T05:01:59.695Z,98962.94
2023-01-06T05:04:28.470Z,98962.41
2023-01-06T05:06:57.068Z,98965.38
2023-01-06T05:09:23.923Z,98969.56
2023-01-06T05:11:50.880Z,98966.22
2023-01-06T05:14:21.316Z,98974.06
2023-01-06T05:16:48.491Z,98972.94
2023-01-06T05:19:18.280Z,98984.47
2023-01-06T05:21:45.182Z,98983.63
2023-01-06T05:24:12.224Z,98981.81
2023-01-06T05:26:39.170Z,98970.28
2023-01-06T05:29:06.050Z,98974.66
2023-01-06T05:31:33.071Z,98968.59
2023-01-06T05:34:00.007Z,98972.66
2023-01-06T05:36:26.934Z,98980.97
2023-01-06T05:38:54.901Z,98981.97
2023-01-06T05:41:22.072Z,98985.91
2023-01-06T05:43:48.952Z,98987.88
2023-01-06T05:46:15.962Z,98986.19
2023-01-06T05:48:42.942Z,98994.06
2023-01-06T05:51:13.867Z,99006.44
2023-01-06T05:53:42.812Z,99003.88
2023-01-06T05:56:12.477Z,99003.34
2023-01-06T05:58:43.079Z,98995.19
2023-01-06T06:01:20.153Z,99000.84
2023-01-06T06:03:47.434Z,99007.00
2023-01-06T06:06:14.712Z,99009.94
2023-01-06T06:08:41.938Z,99005.44
2023-01-06T06:11:11.546Z,99012.31
2023-01-06T06:13:39.217Z,98997.97
2023-01-06T06:16:16.478Z,98999.53
2023-01-06T06:18:46.588Z,98997.44
2023-01-06T06:21:16.335Z,99004.72
2023-01-06T06:23:43.706Z,99002.78
2023-01-06T06:26:13.069Z,98997.72
2023-01-06T06:28:40.766Z,98986.34
2023-01-06T06:31:18.364Z,98992.94
2023-01-06T06:33:45.335Z,99000.25
2023-01-06T06:36:16.143Z,98993.69
2023-01-06T06:38:47.840Z,99002.09
2023-01-06T06:41:15.182Z,99003.63
2023-01-06T06:43:42.501Z,98965.44
2023-01-06T06:46:10.051Z,99009.41
2023-01-06T06:48:37.607Z,99009.69
2023-01-06T06:51:08.623Z,98997.91
2023-01-06T06:53:37.032Z,99015.00
2023-01-06T06:56:07.742Z,99014.44
2023-01-06T06:58:35.718Z,99024.81
2023-01-06T07:01:10.637Z,99005.13
2023-01-06T07:03:39.056Z,99037.03
2023-01-06T07:06:09.035Z,99048.56
2023-01-06T07:08:36.191Z,99035.34
2023-01-06T07:11:03.453Z,99034.50
2023-01-06T07:13:30.365Z,99034.38
2023-01-06T07:15:57.290Z,99038.56
2023-01-06T07:18:24.289Z,99037.59
2023-01-06T07:20:53.826Z,99033.41
2023-01-06T07:23:22.403Z,99040.28
2023-01-06T07:25:57.910Z,99033.25
2023-01-06T07:28:25.904Z,99044.63
2023-01-06T07:30:53.374Z,99017.50
2023-01-06T07:33:21.632Z,99061.06
2023-01-06T07:35:53.337Z,99059.81
2023-01-06T07:38:21.177Z,99066.84
2023-01-06T07:40:48.430Z,99078.94
2023-01-06T07:43:15.512Z,99079.19
2023-01-06T07:45:42.404Z,99071.78
2023-01-06T07:48:10.080Z,99075.84
2023-01-06T07:50:36.976Z,99080.63
2023-01-06T07:53:04.414Z,99060.94
2023-01-06T07:55:31.516Z,99071.09
2023-01-06T07:58:01.737Z,99085.72
2023-01-06T08:00:28.707Z,99086.28
2023-01-06T08:02:56.282Z,99086.84
2023-01-06T08:05:23.301Z,99092.72
2023-01-06T08:07:50.265Z,99082.75
2023-01-06T08:10:17.161Z,99088.53
2023-01-06T08:12:44.047Z,99095.28
2023-01-06T08:15:11.690Z,99094.13
2023-01-06T08:17:38.654Z,99092.88
2023-01-06T08:20:06.348Z,99093.28
2023-01-06T08:22:33.610Z,99091.59
2023-01-06T08:25:02.015Z,99051.97
2023-01-06T08:27:30.817Z,99060.69
2023-01-06T08:29:59.783Z,99082.03
2023-01-06T08:32:30.329Z,99086.22
2023-01-06T08:34:59.823Z,99090.00
2023-01-06T08:37:29.254Z,99086.75
2023-01-06T08:40:00.561Z,99093.50
2023-01-06T08:42:29.553Z,99092.63
2023-01-06T08:45:01.386Z,99096.28
2023-01-06T08:47:29.079Z,99094.56
2023-01-06T08:49:56.232Z,99091.97
2023-01-06T08:52:23.823Z,99084.09
2023-01-06T08:54:52.616Z,99097.00
2023-01-06T08:57:20.500Z,99088.75
2023-01-06T08:59:47.725Z,99091.81
2023-01-06T09:02:15.745Z,99082.50
2023-01-06T09:04:44.346Z,99082.75
2023-01-06T09:07:11.414Z,99086.25
2023-01-06T09:09:38.343Z,99078.53
2023-01-06T09:12:07.473Z,99082.75
2023-01-06T09:14:35.008Z,99084.19
2023-01-06T09:17:01.910Z,99078.00
2023-01-06T09:19:28.906Z,99050.94
2023-01-06T09:21:55.768Z,99072.78
2023-01-06T09:24:23.333Z,99067.03
2023-01-06T09:26:50.275Z,99074.06
2023-01-06T09:29:18.190Z,99064.34
2023-01-06T09:31:46.135Z,99066.34
2023-01-06T09:34:13.265Z,99060.78
2023-01-06T09:36:40.160Z,99058.50
2023-01-06T09:39:07.888Z,99063.84
2023-01-06T09:41:40.987Z,99061.56
2023-01-06T09:44:23.890Z,99056.63
2023-01-06T09:46:52.472Z,99049.34
2023-01-06T09:49:26.116Z,99039.19
2023-01-06T09:51:58.298Z,99040.94
2023-01-06T09:54:36.758Z,99034.75
2023-01-06T09:57:10.959Z,99036.50
2023-01-06T09:59:52.971Z,99024.34
2023-01-06T10:02:46.372Z,99022.50
2023-01-06T10:06:07.776Z,99024.53
2023-01-06T10:09:11.839Z,99032.44
2023-01-06T10:12:00.286Z,99030.91
2023-01-06T10:14:39.453Z,99025.47
2023-01-06T10:17:47.741Z,99021.41
2023-01-06T10:20:37.342Z,99009.09
2023-01-06T10:23:28.630Z,99003.00
2023-01-06T10:26:02.382Z,99000.00
2023-01-06T10:28:36.086Z,98994.16
2023-01-06T10:31:15.642Z,98998.38
2023-01-06T10:33:48.963Z,98999.31
2023-01-06T10:36:18.561Z,98990.97
2023-01-06T10:38:51.467Z,98973.91
2023-01-06T10:41:43.621Z,98971.91
2023-01-06T10:44:12.322Z,98972.66
2023-01-06T10:46:41.545Z,98965.31
2023-01-06T10:49:16.133Z,98964.00
2023-01-06T10:51:49.149Z,98954.78
2023-01-06T10:54:23.227Z,98958.00
2023-01-06T10:56:56.468Z,98951.97
2023-01-06T10:59:23.463Z,98951.34
2023-01-06T11:01:57.400Z,98948.06
2023-01-06T11:04:27.278Z,98937.41
2023-01-06T11:07:02.700Z,98943.66
2023-01-06T11:09:42.315Z,98936.44
2023-01-06T11:12:20.357Z,98938.19
2023-01-06T11:14:58.823Z,98906.59
2023-01-06T11:17:26.942Z,98933.69
2023-01-06T11:20:27.050Z,98935.19
2023-01-06T11:22:54.039Z,98942.75
2023-01-06T11:25:20.937Z,98951.44
2023-01-06T11:28:08.025Z,98954.09
2023-01-06T11:30:43.328Z,98955.88
2023-01-06T11:33:25.608Z,98954.56
2023-01-06T11:35:53.453Z,98950.25
2023-01-06T11:38:22.489Z,98940.84
2023-01-06T11:40:51.380Z,98921.63
2023-01-06T11:43:29.870Z,98939.75
2023-01-06T11:46:00.533Z,98935.75
2023-01-06T11:48:37.201Z,98935.44
2023-01-06T11:51:06.733Z,98932.81
2023-01-06T11:53:34.642Z,98918.06
2023-01-06T11:56:20.819Z,98909.41
2023-01-06T11:58:56.535Z,98905.78
2023-01-06T12:01:41.600Z,98903.00
2023-01-06T12:04:24.387Z,98891.78
2023-01-06T12:07:15.800Z,98872.28
2023-01-06T12:09:47.152Z,98871.31
2023-01-06T12:12:23.072Z,98875.53
2023-01-06T12:14:50.036Z,98877.53
2023-01-06T12:17:38.407Z,98871.50
2023-01-06T12:20:14.344Z,98877.53
2023-01-06T12:23:00.591Z,98879.91
2023-01-06T12:25:40.698Z,98886.75
2023-01-06T12:28:25.133Z,98888.78
2023-01-06T12:31:12.316Z,98879.06
2023-01-06T12:34:14.032Z,98876.03
2023-01-06T12:36:47.852Z,98866.47
2023-01-06T12:39:23.113Z,98874.69
2023-01-06T12:41:58.213Z,98875.00
2023-01-06T12:44:46.950Z,98872.50
2023-01-06T12:47:13.771Z,98862.94
2023-01-06T12:49:48.612Z,98851.50
2023-01-06T12:52:24.674Z,98855.69
2023-01-06T12:54:54.044Z,98856.03
2023-01-06T12:57:33.729Z,98849.50
2023-01-06T13:00:25.303Z,98839.59
2023-01-06T13:02:52.143Z,98834.41
2023-01-06T13:05:37.519Z,98835.03
2023-01-06T13:08:16.677Z,98828.34
2023-01-06T13:10:48.913Z,98830.19
2023-01-06T13:13:41.996Z,98836.41
2023-01-06T13:16:24.203Z,98808.72
2023-01-06T13:19:01.027Z,98820.97
2023-01-06T13:21:30.427Z,98817.63
2023-01-06T13:23:57.384Z,98814.59
2023-01-06T13:26:38.289Z,98811.59
2023-01-06T13:29:05.374Z,98799.50
2023-01-06T13:31:53.856Z,98804.03
2023-01-06T13:34:36.687Z,98806.38
2023-01-06T13:37:22.081Z,98800.50
2023-01-06T13:40:01.124Z,98793.31
2023-01-06T13:42:45.137Z,98784.06
2023-01-06T13:45:20.434Z,98753.00
2023-01-06T13:47:50.079Z,98778.22
2023-01-06T13:50:20.627Z,98781.41
2023-01-06T13:52:48.808Z,98793.13
2023-01-06T13:55:30.404Z,98787.91
2023-01-06T13:58:17.887Z,98770.59
2023-01-06T14:00:44.877Z,98764.06
2023-01-06T14:03:22.040Z,98765.56
2023-01-06T14:05:51.421Z,98754.84
2023-01-06T14:08:20.484Z,98761.22
2023-01-06T14:10:54.950Z,98756.53
2023-01-06T14:13:34.842Z,98761.72
2023-01-06T14:16:11.213Z,98758.38
2023-01-06T14:19:05.903Z,98764.88
2023-01-06T14:21:33.532Z,98744.75
2023-01-06T14:24:06.923Z,98747.09
2023-01-06T14:26:55.903Z,98773.28
2023-01-06T14:29:43.962Z,98760.84
2023-01-06T14:32:19.755Z,98763.88
2023-01-06T14:34:56.437Z,98753.31
2023-01-06T14:37:41.580Z,98757.19
2023-01-06T14:40:23.065Z,98747.28
2023-01-06T14:42:51.072Z,98745.25
2023-01-06T14:45:23.775Z,98750.13
2023-01-06T14:48:16.888Z,98749.28
2023-01-06T14:50:49.008Z,98747.44
2023-01-06T14:53:35.554Z,98744.75
2023-01-06T14:56:03.889Z,98735.03
2023-01-06T14:58:33.627Z,98738.56
2023-01-06T15:01:01.267Z,98724.31
2023-01-06T15:03:29.149Z,98739.41
2023-01-06T15:06:29.309Z,98750.28
2023-01-06T15:09:11.459Z,98740.06
2023-01-06T15:11:41.771Z,98727.63
2023-01-06T15:14:47.348Z,98742.91
2023-01-06T15:17:14.937Z,98723.13
2023-01-06T15:19:46.235Z,98716.41
2023-01-06T15:22:20.981Z,98739.03
2023-01-06T15:24:49.125Z,98732.00
2023-01-06T15:27:18.593Z,98738.19
2023-01-06T15:29:54.435Z,98732.00
2023-01-06T15:32:24.683Z,98729.31
2023-01-06T15:34:52.358Z,98727.97
2023-01-06T15:37:23.620Z,98725.44
2023-01-06T15:39:51.799Z,98727.28
2023-01-06T15:42:24.709Z,98720.22
2023-01-06T15:44:57.521Z,98730.78
2023-01-06T15:47:32.902Z,98739.00
2023-01-06T15:50:06.489Z,98722.25
2023-01-06T15:52:48.922Z,98701.44
2023-01-06T15:55:35.378Z,98711.19
2023-01-06T15:58:08.607Z,98710.69
2023-01-06T16:00:48.230Z,98712.50
2023-01-06T16:03:24.902Z,98704.13
2023-01-06T16:05:57.682Z,98690.72
2023-01-06T16:08:29.331Z,98702.63
2023-01-06T16:11:17.908Z,98698.06
2023-01-06T16:14:00.136Z,98707.97
2023-01-06T16:16:38.094Z,98695.56
2023-01-06T16:19:16.617Z,98697.41
2023-01-06T16:21:44.740Z,98691.38
2023-01-06T16:24:22.233Z,98695.72
2023-01-06T16:26:58.828Z,98700.25
2023-01-06T16:29:28.627Z,98708.13
2023-01-06T16:31:56.565Z,98671.75
2023-01-06T16:34:28.004Z,98694.72
2023-01-06T16:37:00.003Z,98693.03
2023-01-06T16:39:28.201Z,98696.56
2023-01-06T16:41:57.914Z,98691.06
2023-01-06T16:44:32.571Z,98684.00
2023-01-06T16:47:01.097Z,98682.34
2023-01-06T16:49:30.888Z,98679.50
2023-01-06T16:51:57.863Z,98675.97
2023-01-06T16:54:24.848Z,98682.00
2023-01-06T16:56:52.593Z,98649.13
2023-01-06T16:59:22.454Z,98680.84
2023-01-06T17:01:49.580Z,98684.38
2023-01-06T17:04:16.753Z,98679.66
2023-01-06T17:06:45.664Z,98676.00
2023-01-06T17:09:23.816Z,98671.31
2023-01-06T17:11:53.073Z,98667.78
2023-01-06T17:14:23.295Z,98672.97
2023-01-06T17:17:18.465Z,98681.00
2023-01-06T17:19:45.496Z,98675.34
2023-01-06T17:22:31.531Z,98687.75
2023-01-06T17:25:02.199Z,98691.09
2023-01-06T17:27:32.302Z,98688.91
2023-01-06T17:30:01.398Z,98692.44
2023-01-06T17:32:39.867Z,98699.47
2023-01-06T17:35:20.139Z,98712.03
2023-01-06T17:37:47.161Z,98717.06
2023-01-06T17:40:19.547Z,98691.94
2023-01-06T17:42:55.605Z,98696.94
2023-01-06T17:45:27.246Z,98701.16
2023-01-06T17:47:54.611Z,98695.97
2023-01-06T17:50:29.423Z,98699.31
2023-01-06T17:53:38.155Z,98694.81
2023-01-06T17:56:09.467Z,98687.75
2023-01-06T17:58:39.894Z,98689.44
2023-01-06T18:01:21.995Z,98672.66
2023-01-06T18:03:50.916Z,98683.91
2023-01-06T18:06:42.238Z,98678.22
2023-01-06T18:09:16.859Z,98683.75
2023-01-06T18:11:51.842Z,98674.69
2023-01-06T18:14:25.422Z,98677.03
2023-01-06T18:16:54.568Z,98656.44
2023-01-06T18:19:34.144Z,98679.38
2023-01-06T18:22:10.177Z,98664.63
2023-01-06T18:24:40.587Z,98672.69
2023-01-06T18:27:16.798Z,98685.09
2023-01-06T18:29:45.052Z,98689.44
2023-01-06T18:32:20.968Z,98682.09
2023-01-06T18:34:56.345Z,98666.16
2023-01-06T18:37:29.396Z,98678.38
2023-01-06T18:40:01.875Z,98678.38
2023-01-06T18:42:41.862Z,98672.00
2023-01-06T18:45:08.712Z,98669.19
2023-01-06T18:47:37.561Z,98678.72
2023-01-06T18:50:29.675Z,98676.03
2023-01-06T18:52:58.777Z,98682.09
2023-01-06T18:55:36.155Z,98699.03
2023-01-06T18:58:11.675Z,98684.09
2023-01-06T19:00:42.562Z,98690.78
2023-01-06T19:03:28.988Z,98684.25
2023-01-06T19:06:07.342Z,98684.09
2023-01-06T19:08:37.636Z,98680.41
2023-01-06T19:11:14.376Z,98669.50
2023-01-06T19:13:42.481Z,98676.38
2023-01-06T19:16:29.633Z,98682.56
2023-01-06T19:19:08.502Z,98680.22
2023-01-06T19:21:36.568Z,98688.78
2023-01-06T19:24:28.342Z,98685.44
2023-01-06T19:26:58.444Z,98686.78
2023-01-06T19:29:28.897Z,98682.75
2023-01-06T19:32:04.241Z,98686.78
2023-01-06T19:34:32.358Z,98696.16
2023-01-06T19:36:59.472Z,98702.91
2023-01-06T19:39:39.984Z,98703.88
2023-01-06T19:42:17.347Z,98709.75
2023-01-06T19:44:44.478Z,98701.00
2023-01-06T19:47:35.982Z,98702.00
2023-01-06T19:50:23.750Z,98694.78
2023-01-06T19:52:58.677Z,98708.69
2023-01-06T19:55:30.502Z,98703.81
2023-01-06T19:58:20.047Z,98705.31
2023-01-06T20:00:49.393Z,98711.16
2023-01-06T20:03:37.709Z,98699.59
2023-01-06T20:06:05.027Z,98711.31
2023-01-06T20:08:31.982Z,98674.31
2023-01-06T20:10:59.095Z,98716.81
2023-01-06T20:13:26.031Z,98706.75
2023-01-06T20:15:52.932Z,98710.44
2023-01-06T20:18:19.848Z,98713.63
2023-01-06T20:20:46.834Z,98717.81
2023-01-06T20:23:14.519Z,98713.09
2023-01-06T20:25:41.757Z,98697.22
2023-01-06T20:28:08.659Z,98708.25
2023-01-06T20:30:35.606Z,98726.84
2023-01-06T20:33:02.858Z,98725.84
2023-01-06T20:35:29.824Z,98724.84
2023-01-06T20:37:56.741Z,98721.47
2023-01-06T20:40:23.645Z,98731.53
2023-01-06T20:42:50.565Z,98730.34
2023-01-06T20:45:17.562Z,98736.06
2023-01-06T20:47:44.544Z,98739.63
2023-01-06T20:50:13.961Z,98747.19
2023-01-06T20:52:43.302Z,98747.81
2023-01-06T20:55:11.188Z,98747.00
2023-01-06T20:57:39.952Z,98734.22
2023-01-06T21:00:10.289Z,98743.44
2023-01-06T21:02:37.694Z,98760.25
2023-01-06T21:05:08.450Z,98751.50
2023-01-06T21:07:37.200Z,98740.75
2023-01-06T21:10:06.500Z,98741.59
2023-01-06T21:12:35.563Z,98748.00
2023-01-06T21:15:05.064Z,98740.94
2023-01-06T21:17:34.560Z,98753.81
2023-01-06T21:20:03.848Z,98748.47
2023-01-06T21:22:33.144Z,98754.16
2023-01-06T21:25:00.385Z,98722.47
2023-01-06T21:27:27.668Z,98753.31
2023-01-06T21:29:56.465Z,98764.41
2023-01-06T21:32:25.689Z,98765.72
2023-01-06T21:34:54.771Z,98761.53
2023-01-06T21:37:23.782Z,98763.75
2023-01-06T21:39:51.783Z,98762.91
2023-01-06T21:42:39.362Z,98766.41
2023-01-06T21:45:08.681Z,98766.03
2023-01-06T21:47:37.055Z,98762.66
2023-01-06T21:50:06.925Z,98766.03
2023-01-06T21:52:36.018Z,98768.56
2023-01-06T21:55:04.375Z,98768.56
2023-01-06T21:57:33.165Z,98774.25
2023-01-06T22:00:02.485Z,98779.31
2023-01-06T22:02:29.938Z,98775.44
2023-01-06T22:04:57.212Z,98770.22
2023-01-06T22:07:24.869Z,98779.97
2023-01-06T22:09:53.162Z,98777.44
2023-01-06T22:12:20.909Z,98786.53
2023-01-06T22:14:51.117Z,98778.81
2023-01-06T22:17:19.594Z,98782.81
2023-01-06T22:19:47.907Z,98775.44
2023-01-06T22:22:17.362Z,98774.41
2023-01-06T22:24:47.437Z,98777.44
2023-01-06T22:27:16.792Z,98773.09
2023-01-06T22:29:46.018Z,98780.47
2023-01-06T22:32:15.283Z,98784.84
2023-01-06T22:34:45.739Z,98775.63
2023-01-06T22:37:14.387Z,98789.56
2023-01-06T22:39:44.841Z,98782.53
2023-01-06T22:42:11.834Z,98783.34
2023-01-06T22:44:41.661Z,98783.69
2023-01-06T22:47:08.848Z,98782.84
2023-01-06T22:49:35.777Z,98795.66
2023-01-06T22:52:04.192Z,98791.63
2023-01-06T22:54:31.780Z,98792.81
2023-01-06T22:57:00.395Z,98765.66
2023-01-06T22:59:29.698Z,98803.22
2023-01-06T23:01:59.270Z,98804.56
2023-01-06T23:04:28.585Z,98809.13
2023-01-06T23:06:55.728Z,98798.38
2023-01-06T23:09:25.136Z,98793.00
2023-01-06T23:11:54.404Z,98802.56
2023-01-06T23:14:23.889Z,98809.59
2023-01-06T23:16:53.146Z,98802.38
2023-01-06T23:19:20.293Z,98821.84
2023-01-06T23:21:47.336Z,98807.09
2023-01-06T23:24:14.339Z,98821.19
2023-01-06T23:26:46.906Z,98818.50
2023-01-06T23:29:16.174Z,98772.56
2023-01-06T23:31:47.956Z,98821.53
2023-01-06T23:34:19.092Z,98823.88
2023-01-06T23:36:50.713Z,98812.16
2023-01-06T23:39:18.154Z,98809.47
2023-01-06T23:41:47.148Z,98829.78
2023-01-06T23:44:18.956Z,98830.28
2023-01-06T23:46:46.339Z,98829.81
2023-01-06T23:49:17.141Z,98817.25
2023-01-06T23:51:45.286Z,98816.88
2023-01-06T23:54:12.887Z,98830.84
2023-01-06T23:56:40.241Z,98822.97
2023-01-06T23:59:08.512Z,98833.00
